Time;durP1;ratioP1;P1;durP2;ratioP2;P2;SDS_P1;SDS_P2;PMS_P1;PMS_P2;Temp;Humidity;BMP_temperature;BMP_pressure;BME280_temperature;BME280_humidity;BME280_pressure;Samples;Min_cycle;Max_cycle;Signal;HPM_P1;HPM_P2
2024/01/23 00:00:49;;;;;;;116.10;40.97;;;;;;;-143.21;68.97;75550.16;6248603;23;20180;-89
2024/01/23 00:03:16;;;;;;;110.73;41.63;;;;;;;-143.21;68.70;75548.19;6248502;23;20165;-91
2024/01/23 00:05:43;;;;;;;118.00;42.90;;;;;;;-143.21;69.11;75550.16;6244652;23;20165;-92
2024/01/23 00:08:10;;;;;;;123.57;42.37;;;;;;;-143.21;68.53;75550.16;6242762;23;20241;-91
2024/01/23 00:10:37;;;;;;;114.70;42.13;;;;;;;-143.21;68.91;75552.16;6242274;23;20221;-93
2024/01/23 00:13:04;;;;;;;121.67;42.87;;;;;;;-143.21;69.06;75560.09;6241150;23;20169;-91
2024/01/23 00:15:33;;;;;;;127.87;43.83;;;;;;;-143.21;69.32;75558.09;6240810;23;20169;-90
2024/01/23 00:18:00;;;;;;;127.70;46.37;;;;;;;-143.21;69.00;75562.06;6240011;23;20245;-90
2024/01/23 00:20:27;;;;;;;127.23;46.37;;;;;;;-143.21;69.11;75564.06;6241271;23;20173;-91
2024/01/23 00:22:54;;;;;;;148.23;47.47;;;;;;;-143.21;69.08;75558.09;6241985;23;20223;-93
2024/01/23 00:25:21;;;;;;;130.97;46.27;;;;;;;-143.21;68.99;75562.06;6240635;23;20194;-91
2024/01/23 00:27:47;;;;;;;121.90;45.53;;;;;;;-143.21;68.98;75573.97;6241166;23;20176;-93
2024/01/23 00:30:15;;;;;;;127.67;46.83;;;;;;;-143.21;68.84;75564.06;6240353;23;20656;-92
2024/01/23 00:32:44;;;;;;;132.43;46.10;;;;;;;-143.21;68.68;75558.09;6243152;23;20162;-91
2024/01/23 00:35:11;;;;;;;129.57;46.60;;;;;;;-143.21;69.24;75558.09;6253641;23;20172;-92
2024/01/23 00:37:38;;;;;;;131.93;46.73;;;;;;;-143.21;69.83;75554.13;6250577;23;20166;-89
2024/01/23 00:40:06;;;;;;;138.80;47.33;;;;;;;-143.21;69.28;75550.16;6246623;23;20169;-91
2024/01/23 00:42:34;;;;;;;131.53;46.57;;;;;;;-143.21;69.23;75552.16;6241398;23;20208;-91
2024/01/23 00:45:00;;;;;;;133.87;45.33;;;;;;;-143.21;69.11;75566.03;6244201;23;20272;-91
2024/01/23 00:47:27;;;;;;;126.90;44.40;;;;;;;-143.21;69.58;75570.00;6241252;23;20172;-93
2024/01/23 00:49:56;;;;;;;138.77;45.30;;;;;;;-143.21;69.39;75573.97;6240224;23;20169;-92
2024/01/23 00:52:22;;;;;;;135.10;44.83;;;;;;;-143.21;69.68;75577.94;6240878;22;20185;-92
2024/01/23 00:54:49;;;;;;;129.00;43.20;;;;;;;-143.21;69.76;75573.97;6243252;23;20198;-92
2024/01/23 00:57:16;;;;;;;129.43;44.40;;;;;;;-143.21;69.68;75577.94;6241289;23;20177;-91
2024/01/23 00:59:43;;;;;;;118.53;41.83;;;;;;;-143.21;69.37;75572.00;6239620;23;20616;-91
2024/01/23 01:02:10;;;;;;;129.23;42.93;;;;;;;-143.21;68.96;75564.06;6240899;23;20183;-94
2024/01/23 01:04:38;;;;;;;124.10;42.53;;;;;;;-143.21;69.13;75564.06;6242267;23;20514;-93
2024/01/23 01:07:06;;;;;;;126.50;41.43;;;;;;;-143.21;69.50;75568.03;6242720;23;20165;-92
2024/01/23 01:09:33;;;;;;;115.93;40.10;;;;;;;-143.21;68.92;75573.97;6240692;23;20184;-91
2024/01/23 01:12:00;;;;;;;112.67;39.77;;;;;;;-143.21;68.82;75589.88;6241574;23;20236;-92
2024/01/23 01:14:28;;;;;;;117.47;39.77;;;;;;;-143.21;68.56;75589.88;6240976;23;20809;-92
2024/01/23 01:16:55;;;;;;;114.67;40.97;;;;;;;-143.21;68.39;75595.81;6247435;23;20228;-92
2024/01/23 01:19:22;;;;;;;111.30;39.90;;;;;;;-143.21;68.80;75595.81;6248589;23;20176;-93
2024/01/23 01:21:49;;;;;;;120.17;41.27;;;;;;;-143.21;68.92;75593.84;6250015;23;20248;-92
2024/01/23 01:24:17;;;;;;;120.07;38.53;;;;;;;-143.21;68.84;75601.78;6245481;23;20193;-93
2024/01/23 01:26:44;;;;;;;117.73;40.20;;;;;;;-143.21;69.41;75595.81;6244124;23;20162;-93
2024/01/23 01:29:11;;;;;;;114.93;39.93;;;;;;;-143.21;69.16;75597.81;6244178;23;20169;-94
2024/01/23 01:31:38;;;;;;;117.47;38.77;;;;;;;-143.21;69.40;75597.81;6241618;23;20162;-93
2024/01/23 01:34:06;;;;;;;117.57;39.60;;;;;;;-143.21;69.76;75605.75;6242760;23;20617;-93
2024/01/23 01:36:32;;;;;;;121.27;38.80;;;;;;;-143.21;70.02;75613.69;6256972;22;20191;-91
2024/01/23 01:39:02;;;;;;;104.93;37.90;;;;;;;-143.21;70.39;75621.63;6256959;23;20157;-92
2024/01/23 01:41:30;;;;;;;108.77;38.07;;;;;;;-143.21;70.57;75621.63;6241247;23;20248;-93
2024/01/23 01:43:57;;;;;;;108.63;37.03;;;;;;;-143.21;70.76;75627.56;6241303;23;20165;-92
2024/01/23 01:46:26;;;;;;;102.43;35.57;;;;;;;-143.21;71.05;75617.66;6247659;23;20354;-92
2024/01/23 01:48:53;;;;;;;117.27;38.90;;;;;;;-143.21;71.13;75621.63;6251351;23;20600;-93
2024/01/23 01:51:23;;;;;;;107.80;36.73;;;;;;;-143.21;70.84;75619.63;6244518;23;20162;-91
2024/01/23 01:53:51;;;;;;;114.37;39.87;;;;;;;-143.21;70.34;75613.69;6241133;22;20193;-92
2024/01/23 01:56:19;;;;;;;113.53;37.47;;;;;;;-143.21;69.96;75621.63;6241416;23;20537;-92
2024/01/23 01:58:48;;;;;;;107.90;38.43;;;;;;;-143.21;70.19;75619.63;6240681;23;20363;-91
2024/01/23 02:01:15;;;;;;;118.57;38.37;;;;;;;-143.21;70.46;75621.63;6243794;23;20166;-92
2024/01/23 02:03:42;;;;;;;111.67;38.27;;;;;;;-143.21;70.02;75611.69;6241190;23;20213;-93
2024/01/23 02:06:10;;;;;;;98.97;35.90;;;;;;;-143.21;70.47;75617.66;6241174;23;20193;-92
2024/01/23 02:08:37;;;;;;;97.50;36.00;;;;;;;-143.21;70.52;75623.59;6251144;23;20169;-92
2024/01/23 02:11:05;;;;;;;99.43;36.40;;;;;;;-143.21;70.26;75617.66;6243468;23;20165;-93
2024/01/23 02:13:32;;;;;;;96.57;36.27;;;;;;;-143.21;70.00;75611.69;6243174;23;20217;-92
2024/01/23 02:16:00;;;;;;;103.37;36.37;;;;;;;-143.21;69.81;75617.66;6247256;23;20162;-92
2024/01/23 02:18:27;;;;;;;110.13;36.57;;;;;;;-143.21;69.85;75623.59;6243414;23;20176;-93
2024/01/23 02:20:54;;;;;;;108.13;36.17;;;;;;;-143.21;69.95;75621.63;6240684;23;20196;-93
2024/01/23 02:23:21;;;;;;;100.00;36.47;;;;;;;-143.21;70.26;75629.56;6242836;23;20165;-93
2024/01/23 02:25:49;;;;;;;108.50;38.10;;;;;;;-143.21;70.02;75623.59;6240115;23;20204;-94
2024/01/23 02:28:16;;;;;;;103.53;37.00;;;;;;;-143.21;70.16;75621.63;6239753;23;20661;-93
2024/01/23 02:30:43;;;;;;;110.97;37.43;;;;;;;-143.21;70.18;75623.59;6239852;23;20571;-91
2024/01/23 02:33:10;;;;;;;108.27;38.13;;;;;;;-143.21;70.21;75621.63;6241253;23;20193;-92
2024/01/23 02:35:37;;;;;;;116.73;39.10;;;;;;;-143.21;69.60;75611.69;6241502;23;20616;-92
2024/01/23 02:38:04;;;;;;;104.70;37.93;;;;;;;-143.21;69.82;75611.69;6241283;23;20161;-93
2024/01/23 02:40:31;;;;;;;106.97;39.37;;;;;;;-143.21;69.58;75613.69;6240423;23;20576;-94
2024/01/23 02:43:00;;;;;;;119.17;41.47;;;;;;;-143.21;69.95;75617.66;6240148;23;20168;-93
2024/01/23 02:45:27;;;;;;;114.60;38.13;;;;;;;-143.21;69.77;75603.75;6241990;23;20197;-93
2024/01/23 02:47:54;;;;;;;124.80;38.97;;;;;;;-143.21;69.83;75599.78;6242080;23;20168;-93
2024/01/23 02:50:21;;;;;;;114.70;38.67;;;;;;;-143.21;69.37;75593.84;6241741;23;20603;-92
2024/01/23 02:52:49;;;;;;;116.57;40.20;;;;;;;-143.21;69.47;75591.84;6240470;22;20189;-92
2024/01/23 02:55:16;;;;;;;110.87;41.50;;;;;;;-143.21;69.47;75593.84;6241334;23;20204;-94
2024/01/23 02:57:43;;;;;;;117.83;38.07;;;;;;;-143.21;69.29;75587.88;6241669;23;20189;-91
2024/01/23 03:00:13;;;;;;;113.30;38.50;;;;;;;-143.21;69.45;75581.91;6240814;23;20161;-93
2024/01/23 03:02:40;;;;;;;110.93;41.20;;;;;;;-143.21;69.36;75577.94;6240427;23;20185;-94
2024/01/23 03:05:07;;;;;;;104.60;39.97;;;;;;;-143.21;69.45;75572.00;6240803;23;20770;-95
2024/01/23 03:07:35;;;;;;;104.73;38.87;;;;;;;-143.21;68.87;75570.00;6242279;23;20192;-94
2024/01/23 03:10:02;;;;;;;102.50;37.20;;;;;;;-143.21;68.86;75566.03;6240141;23;20620;-94
2024/01/23 03:12:29;;;;;;;107.17;37.83;;;;;;;-143.21;68.79;75566.03;6240696;23;20162;-94
2024/01/23 03:14:56;;;;;;;92.80;35.40;;;;;;;-143.21;68.52;75570.00;6240296;23;20169;-93
2024/01/23 03:17:25;;;;;;;112.07;37.13;;;;;;;-143.21;68.04;75560.09;6243166;23;20210;-92
2024/01/23 03:19:52;;;;;;;106.33;36.37;;;;;;;-143.21;68.02;75562.06;6241471;23;20207;-93
2024/01/23 03:22:19;;;;;;;100.30;36.37;;;;;;;-143.21;68.29;75560.09;6256690;22;20162;-93
2024/01/23 03:24:46;;;;;;;106.33;35.63;;;;;;;-143.21;68.21;75566.03;6256703;22;20193;-91
2024/01/23 03:27:13;;;;;;;97.37;35.03;;;;;;;-143.21;67.77;75558.09;6243349;23;20605;-95
2024/01/23 03:29:41;;;;;;;93.43;33.93;;;;;;;-143.21;67.87;75558.09;6243819;23;20246;-93
2024/01/23 03:32:09;;;;;;;99.50;34.67;;;;;;;-143.21;67.96;75560.09;6243762;23;20571;-93
2024/01/23 03:34:50;;;;;;;99.73;35.17;;;;;;;-143.21;68.17;75558.09;5035054;27;1942276;-92
2024/01/23 03:37:17;;;;;;;92.17;35.00;;;;;;;-143.21;67.69;75546.19;5078118;28;20235;-92
2024/01/23 03:39:44;;;;;;;104.30;35.80;;;;;;;-143.21;67.99;75552.16;5088898;28;20208;-92
2024/01/23 03:42:11;;;;;;;93.93;36.73;;;;;;;-143.21;67.79;75552.16;5082787;28;20197;-93
2024/01/23 03:44:38;;;;;;;101.37;36.57;;;;;;;-143.21;68.11;75550.16;5075648;28;20213;-93
2024/01/23 03:47:06;;;;;;;93.40;35.07;;;;;;;-143.21;67.87;75552.16;5076591;28;20192;-92
2024/01/23 03:49:33;;;;;;;96.03;35.37;;;;;;;-143.21;67.83;75544.22;5072364;28;20429;-93
2024/01/23 03:52:02;;;;;;;88.20;33.00;;;;;;;-143.21;67.84;75542.22;5084395;28;20209;-94
2024/01/23 03:54:29;;;;;;;96.60;33.30;;;;;;;-143.21;68.02;75550.16;5069390;28;20216;-92
2024/01/23 03:56:55;;;;;;;91.37;33.80;;;;;;;-143.21;67.93;75544.22;5074827;28;20210;-93
2024/01/23 03:59:32;;;;;;;89.37;33.33;;;;;;;-143.21;67.51;75546.19;5070330;28;20202;-95
2024/01/23 04:01:59;;;;;;;102.50;34.63;;;;;;;-143.21;67.31;75544.22;5063315;28;20201;-93
2024/01/23 04:04:27;;;;;;;92.80;34.20;;;;;;;-143.21;67.75;75542.22;5075797;28;20280;-94
2024/01/23 04:06:54;;;;;;;104.83;35.23;;;;;;;-143.21;67.76;75546.19;5073863;28;20221;-91
2024/01/23 04:09:23;;;;;;;100.00;34.13;;;;;;;-143.21;68.20;75544.22;5060432;28;20542;-92
2024/01/23 04:11:50;;;;;;;97.67;36.70;;;;;;;-143.21;68.46;75550.16;5072648;28;20205;-92
2024/01/23 04:14:17;;;;;;;97.70;35.73;;;;;;;-143.21;67.99;75552.16;5072219;28;20228;-91
2024/01/23 04:16:44;;;;;;;103.97;36.53;;;;;;;-143.21;67.91;75544.22;5037225;22;20241;-92
2024/01/23 04:19:12;;;;;;;108.23;37.50;;;;;;;-143.21;67.58;75550.16;5029853;28;20217;-94
2024/01/23 04:21:47;;;;;;;104.37;36.80;;;;;;;-143.21;67.63;75550.16;5024883;28;20199;-93
2024/01/23 04:24:14;;;;;;;117.10;37.70;;;;;;;-143.21;66.94;75554.13;5027276;28;20301;-93
2024/01/23 04:26:46;;;;;;;111.03;38.33;;;;;;;-143.21;67.02;75554.13;5023614;28;20206;-95
2024/01/23 04:29:13;;;;;;;104.83;38.00;;;;;;;-143.21;67.14;75552.16;5027344;28;20207;-92
2024/01/23 04:31:40;;;;;;;105.17;38.03;;;;;;;-143.21;66.56;75562.06;5027370;28;20199;-94
2024/01/23 04:34:07;;;;;;;108.30;38.10;;;;;;;-143.21;66.48;75570.00;5024404;28;20731;-93
2024/01/23 04:36:34;;;;;;;101.10;36.33;;;;;;;-143.21;66.52;75564.06;5028301;28;20661;-95
2024/01/23 04:39:01;;;;;;;94.47;35.50;;;;;;;-143.21;66.26;75572.00;5025933;28;20277;-94
2024/01/23 04:41:29;;;;;;;98.27;35.33;;;;;;;-143.21;66.19;75573.97;5024963;28;20195;-93
2024/01/23 04:43:57;;;;;;;98.90;36.23;;;;;;;-143.21;66.33;75564.06;5023295;28;20645;-93
2024/01/23 04:46:24;;;;;;;102.00;37.07;;;;;;;-143.21;66.74;75581.91;5006023;28;20277;-93
2024/01/23 04:48:51;;;;;;;99.10;35.63;;;;;;;-143.21;66.81;75583.91;5015026;28;20290;-94
2024/01/23 04:51:18;;;;;;;97.13;36.13;;;;;;;-143.21;67.46;75575.97;5010726;28;20210;-91
2024/01/23 04:56:28;;;;;;;99.03;35.53;;;;;;;-143.21;67.77;75579.94;5003117;28;20266;-91
2024/01/23 04:58:57;;;;;;;90.90;35.73;;;;;;;-143.21;67.66;75581.91;5013746;28;20199;-91
2024/01/23 05:01:24;;;;;;;99.00;38.33;;;;;;;-143.21;67.54;75575.97;5019620;28;20208;-93
2024/01/23 05:03:50;;;;;;;103.53;38.47;;;;;;;-143.21;67.19;75572.00;5026549;28;20626;-90
2024/01/23 05:06:17;;;;;;;103.60;37.53;;;;;;;-143.21;67.29;75581.91;5020208;28;20207;-90
2024/01/23 05:08:44;;;;;;;98.00;37.77;;;;;;;-143.21;67.11;75579.94;5024711;28;20207;-92
2024/01/23 05:11:11;;;;;;;100.87;37.60;;;;;;;-143.21;66.88;75581.91;5021416;28;20199;-91
2024/01/23 05:13:38;;;;;;;108.07;38.67;;;;;;;-143.21;66.91;75583.91;5014739;28;20697;-92
2024/01/23 05:16:07;;;;;;;100.93;38.03;;;;;;;-143.21;67.12;75583.91;5018075;28;20604;-92
2024/01/23 05:18:34;;;;;;;112.33;38.53;;;;;;;-143.21;67.04;75581.91;5013680;28;20206;-91
2024/01/23 05:21:01;;;;;;;99.27;39.00;;;;;;;-143.21;66.88;75579.94;5012190;28;20207;-90
2024/01/23 05:23:28;;;;;;;103.07;38.57;;;;;;;-143.21;67.45;75579.94;5012160;28;20203;-90
2024/01/23 05:25:55;;;;;;;102.40;38.87;;;;;;;-143.21;67.15;75583.91;5012320;28;20196;-90
2024/01/23 05:28:22;;;;;;;110.97;39.57;;;;;;;-143.21;67.32;75583.91;5007752;28;21021;-90
2024/01/23 05:30:48;;;;;;;117.07;40.43;;;;;;;-143.21;67.23;75575.97;5010392;28;20776;-91
2024/01/23 05:33:20;;;;;;;111.80;38.43;;;;;;;-143.21;66.90;75579.94;5014738;28;20673;-91
2024/01/23 05:35:49;;;;;;;109.70;40.43;;;;;;;-143.21;67.13;75579.94;5015026;28;20212;-93
2024/01/23 05:38:16;;;;;;;115.00;41.97;;;;;;;-143.21;67.19;75573.97;5009447;28;20227;-93
2024/01/23 05:40:45;;;;;;;116.63;41.13;;;;;;;-143.21;66.73;75558.09;5011992;28;20204;-92
2024/01/23 05:43:12;;;;;;;110.33;40.37;;;;;;;-143.21;66.77;75552.16;5011069;28;20205;-90
2024/01/23 05:45:39;;;;;;;118.43;40.00;;;;;;;-143.21;66.48;75566.03;4997002;28;20591;-91
2024/01/23 05:48:06;;;;;;;115.07;40.70;;;;;;;-143.21;66.85;75556.13;5024484;28;20231;-91
2024/01/23 05:51:02;;;;;;;127.53;44.60;;;;;;;-143.21;66.77;75568.03;5014215;28;20208;-90
2024/01/23 05:53:28;;;;;;;130.43;45.70;;;;;;;-143.21;67.11;75562.06;5002546;28;20738;-90
2024/01/23 05:55:56;;;;;;;127.30;44.47;;;;;;;-143.21;66.80;75575.97;5009323;28;20521;-90
2024/01/23 05:58:23;;;;;;;127.77;44.73;;;;;;;-143.21;67.42;75575.97;5013468;28;20203;-91
2024/01/23 06:00:49;;;;;;;127.87;47.03;;;;;;;-143.21;67.76;75575.97;5004971;28;20214;-91
2024/01/23 06:03:16;;;;;;;124.23;44.10;;;;;;;-143.21;67.24;75564.06;5006983;28;20277;-91
2024/01/23 06:05:43;;;;;;;153.90;49.57;;;;;;;-143.21;67.38;75566.03;5011562;28;20281;-91
2024/01/23 06:08:12;;;;;;;145.50;51.43;;;;;;;-143.21;67.69;75564.06;5008658;28;20215;-91
2024/01/23 06:10:39;;;;;;;161.27;53.17;;;;;;;-143.21;67.10;75566.03;5004139;28;20270;-91
2024/01/23 06:13:06;;;;;;;173.63;54.73;;;;;;;-143.21;66.58;75572.00;5000474;28;20248;-91
2024/01/23 06:15:33;;;;;;;166.43;52.67;;;;;;;-143.21;67.58;75575.97;5000355;28;20752;-90
2024/01/23 06:17:59;;;;;;;128.50;46.00;;;;;;;-143.21;67.74;75572.00;5006779;28;20204;-91
2024/01/23 06:20:26;;;;;;;141.43;46.63;;;;;;;-143.21;67.29;75591.84;5007623;28;20209;-91
2024/01/23 06:22:53;;;;;;;134.17;42.80;;;;;;;-143.21;67.50;75591.84;5005653;28;20222;-92
2024/01/23 06:25:21;;;;;;;119.93;42.83;;;;;;;-143.21;67.56;75591.84;5003771;28;20588;-91
2024/01/23 06:27:48;;;;;;;128.80;43.33;;;;;;;-143.21;67.56;75593.84;5008723;28;20273;-92
2024/01/23 06:30:15;;;;;;;116.20;40.23;;;;;;;-143.21;67.77;75595.81;5005540;28;20208;-91
2024/01/23 06:32:42;;;;;;;116.00;41.10;;;;;;;-143.21;67.27;75591.84;5005286;28;20207;-91
2024/01/23 06:35:10;;;;;;;121.33;42.27;;;;;;;-143.21;67.08;75601.78;5012241;28;20219;-91
2024/01/23 06:37:36;;;;;;;119.97;42.37;;;;;;;-143.21;67.03;75595.81;5008548;28;21109;-91
2024/01/23 06:40:04;;;;;;;119.03;43.57;;;;;;;-143.21;66.58;75601.78;5011419;28;21122;-93
2024/01/23 06:42:35;;;;;;;120.60;44.03;;;;;;;-143.21;66.48;75593.84;5011565;28;20203;-90
2024/01/23 06:45:02;;;;;;;115.03;43.13;;;;;;;-143.21;66.17;75591.84;5009154;28;20199;-92
2024/01/23 06:47:29;;;;;;;113.27;42.23;;;;;;;-143.21;66.71;75605.75;5007916;28;20631;-90
2024/01/23 06:49:59;;;;;;;115.27;43.57;;;;;;;-143.21;66.53;75601.78;5000696;28;20217;-91
2024/01/23 06:52:26;;;;;;;112.83;41.23;;;;;;;-143.21;66.25;75621.63;5008703;28;20783;-92
2024/01/23 06:54:53;;;;;;;112.27;41.80;;;;;;;-143.21;66.03;75631.53;5008183;28;20234;-89
2024/01/23 06:57:20;;;;;;;111.30;44.03;;;;;;;-143.21;65.96;75651.41;5012697;28;20195;-91
2024/01/23 06:59:48;;;;;;;115.07;44.30;;;;;;;-143.21;66.63;75669.25;5005949;28;20213;-91
2024/01/23 07:02:15;;;;;;;123.80;47.10;;;;;;;-143.21;67.54;75649.41;5011634;28;20295;-92
2024/01/23 07:04:42;;;;;;;111.03;45.23;;;;;;;-143.21;67.65;75643.47;5004635;28;20662;-91
2024/01/23 07:07:09;;;;;;;120.93;46.60;;;;;;;-143.21;68.44;75621.63;5006085;28;20204;-91
2024/01/23 07:09:36;;;;;;;135.03;51.00;;;;;;;-143.21;67.92;75639.50;5007239;28;20199;-92
2024/01/23 07:12:03;;;;;;;143.43;51.97;;;;;;;-143.21;67.77;75639.50;5006221;28;20228;-91
2024/01/23 07:14:30;;;;;;;137.03;51.97;;;;;;;-143.21;68.32;75633.53;5006247;28;20230;-92
2024/01/23 07:16:58;;;;;;;134.37;51.90;;;;;;;-143.21;68.89;75621.63;5002078;28;20222;-90
2024/01/23 07:19:25;;;;;;;139.87;52.50;;;;;;;-143.21;69.26;75611.69;5007904;28;20283;-91
2024/01/23 07:21:52;;;;;;;120.33;47.53;;;;;;;-143.21;69.16;75601.78;5004808;28;20622;-91
2024/01/23 07:24:18;;;;;;;135.47;51.10;;;;;;;-143.21;69.41;75591.84;5008044;28;20203;-91
2024/01/23 07:26:45;;;;;;;136.57;51.50;;;;;;;-143.21;70.02;75585.91;5011579;28;20203;-90
2024/01/23 07:29:15;;;;;;;131.80;50.47;;;;;;;-143.21;69.88;75564.06;5006963;28;20196;-91
2024/01/23 07:31:42;;;;;;;140.20;52.70;;;;;;;-143.21;70.12;75572.00;5005692;28;20194;-93
2024/01/23 07:34:10;;;;;;;135.13;50.53;;;;;;;-143.21;70.16;75542.22;5005169;28;20692;-91
2024/01/23 07:36:37;;;;;;;139.13;51.87;;;;;;;-143.21;70.27;75520.38;5007334;28;20659;-92
2024/01/23 07:39:06;;;;;;;139.50;53.10;;;;;;;-143.21;70.29;75506.50;5001936;28;20199;-92
2024/01/23 07:41:32;;;;;;;144.33;55.13;;;;;;;-143.21;70.15;75482.66;5007741;28;20248;-91
2024/01/23 07:44:00;;;;;;;141.17;54.40;;;;;;;-143.21;69.47;75472.75;4993435;28;20285;-92
2024/01/23 07:46:26;;;;;;;147.57;53.07;;;;;;;-143.21;69.65;75466.78;5008978;28;20617;-92
2024/01/23 07:48:53;;;;;;;731.87;405.83;;;;;;;-143.21;69.95;75454.88;5002897;28;20200;-90
2024/01/23 07:51:22;;;;;;;254.63;116.33;;;;;;;-143.21;70.23;75439.00;5000604;28;20258;-91
2024/01/23 07:53:50;;;;;;;155.43;57.60;;;;;;;-143.21;70.68;75421.13;5007061;28;20219;-90
2024/01/23 07:56:18;;;;;;;139.87;52.20;;;;;;;-143.21;70.17;75415.19;5001169;28;20302;-90
2024/01/23 07:58:45;;;;;;;133.10;52.13;;;;;;;-143.21;70.10;75413.19;5000227;28;20207;-91
2024/01/23 08:01:12;;;;;;;122.43;51.23;;;;;;;-143.21;69.60;75391.38;5003719;28;20203;-92
2024/01/23 08:03:39;;;;;;;137.97;51.93;;;;;;;-143.21;68.92;75375.47;5005636;28;20203;-93
2024/01/23 08:06:06;;;;;;;143.13;53.77;;;;;;;-143.21;68.71;75357.63;5004088;28;20223;-90
2024/01/23 08:08:34;;;;;;;151.23;55.37;;;;;;;-143.21;69.20;75355.63;5008943;28;20274;-89
2024/01/23 08:11:03;;;;;;;152.70;55.50;;;;;;;-143.21;68.84;75341.75;5007659;28;20658;-93
2024/01/23 08:13:33;;;;;;;142.73;55.10;;;;;;;-143.21;69.19;75335.78;5011282;28;20262;-93
2024/01/23 08:16:03;;;;;;;146.33;57.27;;;;;;;-143.21;69.16;75331.81;5004082;28;20241;-92
2024/01/23 08:27:48;;;;;;;168.93;60.20;;;;;;;-143.21;67.81;75294.09;5032464;28;20195;-96
2024/01/23 08:38:09;;;;;;;161.87;61.67;;;;;;;-143.21;67.84;75254.41;5776454;23;20233;-96
2024/01/23 08:40:39;;;;;;;178.60;63.57;;;;;;;-143.21;66.95;75240.50;5137542;23;20291;-92
2024/01/23 08:43:06;;;;;;;163.00;61.07;;;;;;;-143.21;67.31;75236.53;5013073;28;20279;-92
2024/01/23 08:45:34;;;;;;;167.67;62.90;;;;;;;-143.21;67.27;75228.59;5013893;28;20210;-95
2024/01/23 08:48:00;;;;;;;172.47;63.53;;;;;;;-143.21;67.58;75220.66;5011932;28;20204;-93
2024/01/23 08:50:28;;;;;;;166.93;63.60;;;;;;;-143.21;67.67;75210.75;5007420;28;20211;-95
2024/01/23 08:53:01;;;;;;;164.87;61.57;;;;;;;-143.21;67.95;75214.72;5018305;28;20231;-96
2024/01/23 08:55:29;;;;;;;173.10;63.33;;;;;;;-143.21;67.92;75202.81;5014505;28;20232;-95
2024/01/23 08:57:58;;;;;;;165.17;61.80;;;;;;;-143.21;67.06;75182.94;5011938;28;20235;-93
2024/01/23 09:00:25;;;;;;;167.03;62.73;;;;;;;-143.21;66.93;75169.06;5014327;28;20206;-93
2024/01/23 09:03:11;;;;;;;167.97;63.17;;;;;;;-143.21;66.53;75151.19;5013732;28;20211;-93
2024/01/23 09:05:38;;;;;;;176.83;65.23;;;;;;;-143.21;67.09;75151.19;5014470;28;20202;-91
2024/01/23 09:08:06;;;;;;;169.90;64.90;;;;;;;-143.21;67.03;75127.38;5014749;28;20257;-90
2024/01/23 09:10:33;;;;;;;176.77;66.70;;;;;;;-143.21;66.74;75105.53;5012768;28;20230;-93
2024/01/23 09:13:01;;;;;;;183.27;64.40;;;;;;;-143.21;66.72;75095.63;5011405;28;20202;-93
2024/01/23 09:15:29;;;;;;;168.70;66.40;;;;;;;-143.21;66.95;75085.69;5009807;28;20278;-93
2024/01/23 09:17:56;;;;;;;162.03;66.17;;;;;;;-143.21;66.97;75069.81;5015728;28;20269;-92
2024/01/23 09:20:24;;;;;;;176.90;66.83;;;;;;;-143.21;66.25;75048.00;5023816;28;20199;-93
2024/01/23 09:22:51;;;;;;;172.17;68.03;;;;;;;-143.21;66.14;75038.06;5019072;28;20216;-95
2024/01/23 09:25:19;;;;;;;161.43;66.97;;;;;;;-143.21;66.09;75024.16;5006384;28;20196;-90
2024/01/23 09:27:48;;;;;;;171.40;69.77;;;;;;;-143.21;66.34;75004.31;5009683;28;20282;-94
2024/01/23 09:30:24;;;;;;;207.50;74.40;;;;;;;-143.21;66.46;74992.41;5019457;28;20265;-93
2024/01/23 09:35:37;;;;;;;187.50;74.20;;;;;;;-143.21;65.04;74962.66;5018201;28;20234;-94
2024/01/23 09:38:04;;;;;;;180.90;74.43;;;;;;;-143.21;65.27;74960.66;5030002;28;20268;-95
2024/01/23 09:40:32;;;;;;;190.90;76.23;;;;;;;-143.21;64.87;74958.69;5022347;28;20229;-94
2024/01/23 09:43:05;;;;;;;194.43;77.23;;;;;;;-143.21;65.04;74952.72;5019288;28;20210;-96
2024/01/23 09:45:39;;;;;;;193.90;75.77;;;;;;;-143.21;64.38;74932.88;5017058;28;20210;-96
2024/01/23 09:48:09;;;;;;;205.90;77.67;;;;;;;-143.21;64.43;74920.97;5013881;28;20280;-94
2024/01/23 09:53:26;;;;;;;212.60;83.13;;;;;;;-143.21;63.46;74893.19;5016413;28;20199;-94
2024/01/23 09:55:54;;;;;;;212.87;84.97;;;;;;;-143.21;63.58;74885.25;5016487;28;20257;-95
2024/01/23 09:58:36;;;;;;;215.97;85.73;;;;;;;-143.21;63.82;74869.38;5014489;28;20746;-95
2024/01/23 10:01:08;;;;;;;231.13;91.00;;;;;;;-143.21;63.87;74825.69;5018464;28;20667;-92
2024/01/23 10:03:48;;;;;;;226.53;87.27;;;;;;;-143.21;61.67;74750.28;5040078;28;20744;-93
2024/01/23 10:06:15;;;;;;;213.13;85.47;;;;;;;-143.21;60.47;74595.50;5027234;28;20311;-93
2024/01/23 10:08:42;;;;;;;193.80;83.63;;;;;;;-143.21;55.27;74408.97;5037894;28;20205;-94
2024/01/23 10:11:12;;;;;;;196.87;81.73;;;;;;;-143.21;50.21;74246.25;5030371;28;20200;-93
2024/01/23 10:13:43;;;;;;;206.43;84.93;;;;;;;-143.21;47.18;74103.38;5044106;28;20190;-92
2024/01/23 10:16:12;;;;;;;201.50;87.20;;;;;;;-143.21;43.14;73942.66;5019351;28;20284;-93
2024/01/23 10:18:58;;;;;;;202.50;85.27;;;;;;;-143.21;42.51;73903.00;5025414;28;20298;-92
2024/01/23 10:21:27;;;;;;;203.27;85.50;;;;;;;-143.21;40.44;73762.13;5035443;28;20203;-91
2024/01/23 10:26:37;;;;;;;187.13;82.17;;;;;;;-143.21;38.84;73706.56;5018180;28;20203;-92
2024/01/23 10:29:04;;;;;;;182.90;81.50;;;;;;;-143.21;38.68;73641.09;5032360;28;20323;-92
2024/01/23 10:31:38;;;;;;;173.67;80.63;;;;;;;-143.21;37.18;73533.97;5028563;28;20210;-93
2024/01/23 10:34:06;;;;;;;185.00;85.17;;;;;;;-143.21;35.82;73450.66;5024554;28;20217;-91
2024/01/23 10:36:33;;;;;;;183.70;86.17;;;;;;;-143.21;34.98;73387.16;5015320;28;20219;-93
2024/01/23 10:39:00;;;;;;;181.47;84.97;;;;;;;-143.21;34.22;73351.47;5024846;28;20214;-92
2024/01/23 10:41:31;;;;;;;174.63;83.63;;;;;;;-143.21;34.28;73339.56;5031659;28;20314;-92
2024/01/23 10:44:02;;;;;;;174.47;83.60;;;;;;;-143.21;34.05;73353.44;5020912;28;20632;-92
2024/01/23 10:46:30;;;;;;;181.57;85.17;;;;;;;-143.21;33.48;73311.78;5027922;28;20712;-93
2024/01/23 10:49:02;;;;;;;169.03;80.00;;;;;;;-143.21;33.49;73337.56;5017356;28;20194;-93
2024/01/23 10:51:42;;;;;;;166.43;81.47;;;;;;;-143.21;33.20;73301.88;5031495;28;20222;-92
2024/01/23 10:54:14;;;;;;;168.57;79.20;;;;;;;-143.21;32.80;73262.19;5032399;28;20199;-92
2024/01/23 10:56:44;;;;;;;159.00;78.03;;;;;;;-143.21;32.62;73196.72;5017572;28;20716;-92
2024/01/23 10:59:19;;;;;;;157.93;77.37;;;;;;;-143.21;32.29;73166.97;5016756;28;20266;-91
2024/01/23 11:01:47;;;;;;;169.17;76.30;;;;;;;-143.21;32.40;73174.91;5024737;28;20207;-91
2024/01/23 11:10:10;;;;;;;156.93;73.23;;;;;;;-143.21;31.41;73087.63;5013151;28;20272;-90
2024/01/23 11:12:46;;;;;;;149.73;72.73;;;;;;;-143.21;31.09;73089.63;5026222;28;20657;-92
2024/01/23 11:15:16;;;;;;;136.70;71.83;;;;;;;-143.21;31.20;73109.44;5041197;28;20692;-91
2024/01/23 11:17:43;;;;;;;142.60;71.93;;;;;;;-143.21;31.75;73170.94;5017385;28;20195;-91
2024/01/23 11:20:18;;;;;;;154.40;72.47;;;;;;;-143.21;31.47;73172.94;5019177;28;20195;-91
2024/01/23 11:22:45;;;;;;;137.53;69.47;;;;;;;-143.21;31.54;73166.97;5024444;28;20187;-90
2024/01/23 11:25:18;;;;;;;141.77;69.57;;;;;;;-143.21;31.78;73176.91;5031942;28;20200;-91
2024/01/23 11:27:49;;;;;;;149.50;74.20;;;;;;;-143.21;31.64;73161.03;5012446;28;20238;-90
2024/01/23 11:30:18;;;;;;;156.07;72.17;;;;;;;-143.21;31.98;73163.00;5018448;28;20190;-92
2024/01/23 11:32:45;;;;;;;156.20;71.90;;;;;;;-143.21;32.04;73161.03;5010385;28;20207;-92